sensor_id;sensor_type;location;lat;lon;timestamp;temperature;humidity
3713;DHT22;1872;51.406;6.856;2022-07-29T00:00:11;19.80;75.70
3713;DHT22;1872;51.406;6.856;2022-07-29T00:02:37;19.80;75.80
3713;DHT22;1872;51.406;6.856;2022-07-29T00:05:04;19.70;75.80
3713;DHT22;1872;51.406;6.856;2022-07-29T00:07:30;19.70;75.80
3713;DHT22;1872;51.406;6.856;2022-07-29T00:09:55;19.70;75.80
3713;DHT22;1872;51.406;6.856;2022-07-29T00:12:24;19.70;75.90
3713;DHT22;1872;51.406;6.856;2022-07-29T00:14:50;19.70;76.00
3713;DHT22;1872;51.406;6.856;2022-07-29T00:17:16;19.70;76.00
3713;DHT22;1872;51.406;6.856;2022-07-29T00:19:43;19.70;76.00
3713;DHT22;1872;51.406;6.856;2022-07-29T00:22:08;19.70;76.00
3713;DHT22;1872;51.406;6.856;2022-07-29T00:24:34;19.60;76.00
3713;DHT22;1872;51.406;6.856;2022-07-29T00:27:00;19.60;76.10
3713;DHT22;1872;51.406;6.856;2022-07-29T00:29:25;19.60;76.10
3713;DHT22;1872;51.406;6.856;2022-07-29T00:31:51;19.60;76.20
3713;DHT22;1872;51.406;6.856;2022-07-29T00:34:16;19.50;76.10
3713;DHT22;1872;51.406;6.856;2022-07-29T00:37:00;19.50;76.90
3713;DHT22;1872;51.406;6.856;2022-07-29T00:39:26;19.50;76.30
3713;DHT22;1872;51.406;6.856;2022-07-29T00:41:52;19.50;76.30
3713;DHT22;1872;51.406;6.856;2022-07-29T00:44:17;19.50;76.40
3713;DHT22;1872;51.406;6.856;2022-07-29T00:46:43;19.50;76.50
3713;DHT22;1872;51.406;6.856;2022-07-29T00:49:09;19.40;76.40
3713;DHT22;1872;51.406;6.856;2022-07-29T00:51:36;19.40;76.40
3713;DHT22;1872;51.406;6.856;2022-07-29T00:54:03;19.40;76.50
3713;DHT22;1872;51.406;6.856;2022-07-29T00:56:33;19.40;76.60
3713;DHT22;1872;51.406;6.856;2022-07-29T00:58:59;19.40;76.80
3713;DHT22;1872;51.406;6.856;2022-07-29T01:01:26;19.30;76.80
3713;DHT22;1872;51.406;6.856;2022-07-29T01:03:52;19.30;76.80
3713;DHT22;1872;51.406;6.856;2022-07-29T01:06:18;19.30;76.90
3713;DHT22;1872;51.406;6.856;2022-07-29T01:08:45;19.30;76.90
3713;DHT22;1872;51.406;6.856;2022-07-29T01:11:13;19.20;77.00
3713;DHT22;1872;51.406;6.856;2022-07-29T01:13:39;19.20;77.00
3713;DHT22;1872;51.406;6.856;2022-07-29T01:16:32;19.20;77.00
3713;DHT22;1872;51.406;6.856;2022-07-29T01:19:07;19.20;77.20
3713;DHT22;1872;51.406;6.856;2022-07-29T01:26:57;19.20;77.40
3713;DHT22;1872;51.406;6.856;2022-07-29T01:29:29;19.10;77.40
3713;DHT22;1872;51.406;6.856;2022-07-29T01:32:07;19.10;77.50
3713;DHT22;1872;51.406;6.856;2022-07-29T01:34:50;19.10;77.70
3713;DHT22;1872;51.406;6.856;2022-07-29T01:40:08;19.00;77.60
3713;DHT22;1872;51.406;6.856;2022-07-29T01:42:42;19.00;77.70
3713;DHT22;1872;51.406;6.856;2022-07-29T01:48:12;19.00;77.90
3713;DHT22;1872;51.406;6.856;2022-07-29T01:50:53;19.00;78.00
3713;DHT22;1872;51.406;6.856;2022-07-29T01:56:00;19.00;78.10
3713;DHT22;1872;51.406;6.856;2022-07-29T01:58:28;19.00;78.20
3713;DHT22;1872;51.406;6.856;2022-07-29T02:00:56;18.90;78.20
3713;DHT22;1872;51.406;6.856;2022-07-29T02:03:23;18.90;78.30
3713;DHT22;1872;51.406;6.856;2022-07-29T02:05:49;18.90;78.40
3713;DHT22;1872;51.406;6.856;2022-07-29T02:08:18;18.90;78.40
3713;DHT22;1872;51.406;6.856;2022-07-29T02:10:45;18.90;78.50
3713;DHT22;1872;51.406;6.856;2022-07-29T02:13:13;18.90;79.20
3713;DHT22;1872;51.406;6.856;2022-07-29T02:15:42;18.90;78.60
3713;DHT22;1872;51.406;6.856;2022-07-29T02:18:13;18.90;78.70
3713;DHT22;1872;51.406;6.856;2022-07-29T02:20:46;18.90;78.70
3713;DHT22;1872;51.406;6.856;2022-07-29T02:23:15;18.80;78.70
3713;DHT22;1872;51.406;6.856;2022-07-29T02:25:43;18.80;78.80
3713;DHT22;1872;51.406;6.856;2022-07-29T02:28:09;18.80;78.90
3713;DHT22;1872;51.406;6.856;2022-07-29T02:30:40;18.80;79.00
3713;DHT22;1872;51.406;6.856;2022-07-29T02:33:07;18.80;79.00
3713;DHT22;1872;51.406;6.856;2022-07-29T02:35:34;18.80;79.00
3713;DHT22;1872;51.406;6.856;2022-07-29T02:38:00;18.80;79.10
3713;DHT22;1872;51.406;6.856;2022-07-29T02:40:45;18.80;79.20
3713;DHT22;1872;51.406;6.856;2022-07-29T02:43:13;18.80;79.20
3713;DHT22;1872;51.406;6.856;2022-07-29T02:45:39;18.80;79.30
3713;DHT22;1872;51.406;6.856;2022-07-29T02:48:13;18.80;79.30
3713;DHT22;1872;51.406;6.856;2022-07-29T02:50:53;18.80;79.50
3713;DHT22;1872;51.406;6.856;2022-07-29T02:53:24;18.80;80.20
3713;DHT22;1872;51.406;6.856;2022-07-29T02:55:56;18.80;79.80
3713;DHT22;1872;51.406;6.856;2022-07-29T02:59:00;18.80;80.10
3713;DHT22;1872;51.406;6.856;2022-07-29T03:01:31;18.80;80.10
3713;DHT22;1872;51.406;6.856;2022-07-29T03:04:01;18.80;80.10
3713;DHT22;1872;51.406;6.856;2022-07-29T03:06:29;18.80;80.10
3713;DHT22;1872;51.406;6.856;2022-07-29T03:08:56;18.70;80.10
3713;DHT22;1872;51.406;6.856;2022-07-29T03:11:23;18.70;80.20
3713;DHT22;1872;51.406;6.856;2022-07-29T03:13:50;18.70;80.40
3713;DHT22;1872;51.406;6.856;2022-07-29T03:16:16;18.70;80.40
3713;DHT22;1872;51.406;6.856;2022-07-29T03:18:43;18.70;80.50
3713;DHT22;1872;51.406;6.856;2022-07-29T03:21:09;18.60;80.40
3713;DHT22;1872;51.406;6.856;2022-07-29T03:23:35;18.60;80.50
3713;DHT22;1872;51.406;6.856;2022-07-29T03:26:00;18.60;80.70
3713;DHT22;1872;51.406;6.856;2022-07-29T03:28:26;18.60;80.80
3713;DHT22;1872;51.406;6.856;2022-07-29T03:30:53;18.50;80.80
3713;DHT22;1872;51.406;6.856;2022-07-29T03:33:18;18.50;81.00
3713;DHT22;1872;51.406;6.856;2022-07-29T03:35:44;18.50;81.30
3713;DHT22;1872;51.406;6.856;2022-07-29T03:38:10;18.50;81.30
3713;DHT22;1872;51.406;6.856;2022-07-29T03:40:45;18.50;81.40
3713;DHT22;1872;51.406;6.856;2022-07-29T03:43:13;18.40;81.60
3713;DHT22;1872;51.406;6.856;2022-07-29T03:45:49;18.40;81.70
3713;DHT22;1872;51.406;6.856;2022-07-29T03:48:19;18.40;81.90
3713;DHT22;1872;51.406;6.856;2022-07-29T03:50:45;18.40;82.00
3713;DHT22;1872;51.406;6.856;2022-07-29T03:53:11;18.30;82.00
3713;DHT22;1872;51.406;6.856;2022-07-29T03:55:41;18.30;82.10
3713;DHT22;1872;51.406;6.856;2022-07-29T03:58:08;18.30;82.30
3713;DHT22;1872;51.406;6.856;2022-07-29T04:00:36;18.30;82.40
3713;DHT22;1872;51.406;6.856;2022-07-29T04:03:03;18.30;82.70
3713;DHT22;1872;51.406;6.856;2022-07-29T04:05:30;18.30;82.80
3713;DHT22;1872;51.406;6.856;2022-07-29T04:07:55;18.30;83.00
3713;DHT22;1872;51.406;6.856;2022-07-29T04:10:21;18.20;83.10
3713;DHT22;1872;51.406;6.856;2022-07-29T04:12:49;18.20;83.30
3713;DHT22;1872;51.406;6.856;2022-07-29T04:15:14;18.20;83.50
3713;DHT22;1872;51.406;6.856;2022-07-29T04:17:40;18.20;83.60
3713;DHT22;1872;51.406;6.856;2022-07-29T04:20:06;18.10;83.70
3713;DHT22;1872;51.406;6.856;2022-07-29T04:22:32;18.10;84.00
3713;DHT22;1872;51.406;6.856;2022-07-29T04:24:58;18.10;84.20
3713;DHT22;1872;51.406;6.856;2022-07-29T04:27:25;18.10;84.50
3713;DHT22;1872;51.406;6.856;2022-07-29T04:29:50;18.00;84.60
3713;DHT22;1872;51.406;6.856;2022-07-29T04:32:16;18.00;84.90
3713;DHT22;1872;51.406;6.856;2022-07-29T04:34:42;18.00;85.00
3713;DHT22;1872;51.406;6.856;2022-07-29T04:37:08;17.90;85.00
3713;DHT22;1872;51.406;6.856;2022-07-29T04:39:33;17.80;85.10
3713;DHT22;1872;51.406;6.856;2022-07-29T04:41:59;17.80;85.20
3713;DHT22;1872;51.406;6.856;2022-07-29T04:44:25;17.80;85.40
3713;DHT22;1872;51.406;6.856;2022-07-29T04:46:51;17.80;85.50
3713;DHT22;1872;51.406;6.856;2022-07-29T04:49:16;17.70;85.60
3713;DHT22;1872;51.406;6.856;2022-07-29T04:51:42;17.60;85.80
3713;DHT22;1872;51.406;6.856;2022-07-29T04:54:08;17.60;86.10
3713;DHT22;1872;51.406;6.856;2022-07-29T04:56:33;17.50;86.20
3713;DHT22;1872;51.406;6.856;2022-07-29T04:58:59;17.50;86.30
3713;DHT22;1872;51.406;6.856;2022-07-29T05:01:25;17.50;86.40
3713;DHT22;1872;51.406;6.856;2022-07-29T05:03:50;17.50;86.40
3713;DHT22;1872;51.406;6.856;2022-07-29T05:06:16;17.50;86.40
3713;DHT22;1872;51.406;6.856;2022-07-29T05:08:41;17.40;86.50
3713;DHT22;1872;51.406;6.856;2022-07-29T05:11:07;17.40;86.60
3713;DHT22;1872;51.406;6.856;2022-07-29T05:13:33;17.40;87.10
3713;DHT22;1872;51.406;6.856;2022-07-29T05:15:59;17.30;88.20
3713;DHT22;1872;51.406;6.856;2022-07-29T05:18:25;17.30;89.50
3713;DHT22;1872;51.406;6.856;2022-07-29T05:20:51;17.20;90.20
3713;DHT22;1872;51.406;6.856;2022-07-29T05:23:17;17.10;90.50
3713;DHT22;1872;51.406;6.856;2022-07-29T05:25:43;17.00;90.80
3713;DHT22;1872;51.406;6.856;2022-07-29T05:28:09;16.90;91.10
3713;DHT22;1872;51.406;6.856;2022-07-29T05:30:35;16.80;91.50
3713;DHT22;1872;51.406;6.856;2022-07-29T05:33:00;16.70;91.80
3713;DHT22;1872;51.406;6.856;2022-07-29T05:35:26;16.50;92.00
3713;DHT22;1872;51.406;6.856;2022-07-29T05:37:52;16.40;92.30
3713;DHT22;1872;51.406;6.856;2022-07-29T05:40:19;16.20;92.30
3713;DHT22;1872;51.406;6.856;2022-07-29T05:42:44;16.00;92.60
3713;DHT22;1872;51.406;6.856;2022-07-29T05:45:10;15.80;92.80
3713;DHT22;1872;51.406;6.856;2022-07-29T05:47:36;15.60;93.00
3713;DHT22;1872;51.406;6.856;2022-07-29T05:50:01;15.50;93.20
3713;DHT22;1872;51.406;6.856;2022-07-29T05:52:27;15.40;93.40
3713;DHT22;1872;51.406;6.856;2022-07-29T05:54:54;15.40;93.60
3713;DHT22;1872;51.406;6.856;2022-07-29T05:57:22;15.30;93.80
3713;DHT22;1872;51.406;6.856;2022-07-29T05:59:49;15.30;94.10
3713;DHT22;1872;51.406;6.856;2022-07-29T06:02:16;15.30;94.40
3713;DHT22;1872;51.406;6.856;2022-07-29T06:04:42;15.30;94.70
3713;DHT22;1872;51.406;6.856;2022-07-29T06:07:08;15.30;95.00
3713;DHT22;1872;51.406;6.856;2022-07-29T06:09:34;15.30;95.10
3713;DHT22;1872;51.406;6.856;2022-07-29T06:12:00;15.30;95.50
3713;DHT22;1872;51.406;6.856;2022-07-29T06:14:26;15.40;95.90
3713;DHT22;1872;51.406;6.856;2022-07-29T06:16:54;15.40;96.10
3713;DHT22;1872;51.406;6.856;2022-07-29T06:19:19;15.40;96.70
3713;DHT22;1872;51.406;6.856;2022-07-29T06:21:46;15.40;96.70
3713;DHT22;1872;51.406;6.856;2022-07-29T06:24:13;15.50;97.10
3713;DHT22;1872;51.406;6.856;2022-07-29T06:26:40;15.50;97.50
3713;DHT22;1872;51.406;6.856;2022-07-29T06:29:06;15.60;97.80
3713;DHT22;1872;51.406;6.856;2022-07-29T06:31:32;15.70;98.30
3713;DHT22;1872;51.406;6.856;2022-07-29T06:33:58;15.70;98.60
3713;DHT22;1872;51.406;6.856;2022-07-29T06:36:24;15.80;99.00
3713;DHT22;1872;51.406;6.856;2022-07-29T06:38:49;15.80;99.30
3713;DHT22;1872;51.406;6.856;2022-07-29T06:41:15;15.80;99.70
3713;DHT22;1872;51.406;6.856;2022-07-29T06:43:43;15.80;99.90
3713;DHT22;1872;51.406;6.856;2022-07-29T06:46:11;15.90;99.90
3713;DHT22;1872;51.406;6.856;2022-07-29T06:48:38;16.00;99.90
3713;DHT22;1872;51.406;6.856;2022-07-29T06:51:05;16.10;99.90
3713;DHT22;1872;51.406;6.856;2022-07-29T06:53:33;16.20;99.90
3713;DHT22;1872;51.406;6.856;2022-07-29T06:55:59;16.30;99.90
3713;DHT22;1872;51.406;6.856;2022-07-29T06:58:29;16.40;99.90
3713;DHT22;1872;51.406;6.856;2022-07-29T07:00:57;16.50;99.90
3713;DHT22;1872;51.406;6.856;2022-07-29T07:03:23;16.50;99.90
3713;DHT22;1872;51.406;6.856;2022-07-29T07:05:49;16.50;99.90
3713;DHT22;1872;51.406;6.856;2022-07-29T07:08:17;16.50;99.90
3713;DHT22;1872;51.406;6.856;2022-07-29T07:10:45;16.50;99.90
3713;DHT22;1872;51.406;6.856;2022-07-29T07:13:11;16.50;99.90
3713;DHT22;1872;51.406;6.856;2022-07-29T07:15:37;16.50;99.90
3713;DHT22;1872;51.406;6.856;2022-07-29T07:18:04;16.60;99.90
3713;DHT22;1872;51.406;6.856;2022-07-29T07:20:29;16.60;99.90
3713;DHT22;1872;51.406;6.856;2022-07-29T07:22:56;16.60;99.90
3713;DHT22;1872;51.406;6.856;2022-07-29T07:25:22;16.70;99.90
3713;DHT22;1872;51.406;6.856;2022-07-29T07:27:48;16.70;99.90
3713;DHT22;1872;51.406;6.856;2022-07-29T07:30:13;16.70;99.90
3713;DHT22;1872;51.406;6.856;2022-07-29T07:32:39;16.70;99.90
3713;DHT22;1872;51.406;6.856;2022-07-29T07:35:07;16.80;99.90
3713;DHT22;1872;51.406;6.856;2022-07-29T07:37:34;16.80;99.90
3713;DHT22;1872;51.406;6.856;2022-07-29T07:40:00;16.80;99.90
3713;DHT22;1872;51.406;6.856;2022-07-29T07:42:26;16.70;99.90
3713;DHT22;1872;51.406;6.856;2022-07-29T07:44:51;16.70;99.90
3713;DHT22;1872;51.406;6.856;2022-07-29T07:47:18;16.80;99.90
3713;DHT22;1872;51.406;6.856;2022-07-29T07:49:49;16.80;99.90
3713;DHT22;1872;51.406;6.856;2022-07-29T07:52:16;16.80;99.90
3713;DHT22;1872;51.406;6.856;2022-07-29T07:54:42;16.80;99.90
3713;DHT22;1872;51.406;6.856;2022-07-29T07:57:10;16.80;99.90
3713;DHT22;1872;51.406;6.856;2022-07-29T07:59:36;16.80;99.90
3713;DHT22;1872;51.406;6.856;2022-07-29T08:02:02;16.80;99.90
3713;DHT22;1872;51.406;6.856;2022-07-29T08:04:28;16.80;99.90
3713;DHT22;1872;51.406;6.856;2022-07-29T08:06:55;16.80;99.90
3713;DHT22;1872;51.406;6.856;2022-07-29T08:09:21;16.80;99.90
3713;DHT22;1872;51.406;6.856;2022-07-29T08:11:47;16.80;99.90
3713;DHT22;1872;51.406;6.856;2022-07-29T08:14:14;16.80;99.90
3713;DHT22;1872;51.406;6.856;2022-07-29T08:16:40;16.70;99.90
3713;DHT22;1872;51.406;6.856;2022-07-29T08:19:06;16.70;99.90
3713;DHT22;1872;51.406;6.856;2022-07-29T08:21:32;16.70;99.90
3713;DHT22;1872;51.406;6.856;2022-07-29T08:23:58;16.70;99.90
3713;DHT22;1872;51.406;6.856;2022-07-29T08:26:43;16.70;99.90
3713;DHT22;1872;51.406;6.856;2022-07-29T08:29:10;16.70;99.90
3713;DHT22;1872;51.406;6.856;2022-07-29T08:31:37;16.70;99.90
3713;DHT22;1872;51.406;6.856;2022-07-29T08:34:03;16.80;99.90
3713;DHT22;1872;51.406;6.856;2022-07-29T08:36:30;16.90;99.90
3713;DHT22;1872;51.406;6.856;2022-07-29T08:38:56;16.90;99.90
3713;DHT22;1872;51.406;6.856;2022-07-29T08:41:22;16.90;99.90
3713;DHT22;1872;51.406;6.856;2022-07-29T08:43:49;16.90;99.90
3713;DHT22;1872;51.406;6.856;2022-07-29T08:46:15;17.00;99.90
3713;DHT22;1872;51.406;6.856;2022-07-29T08:48:43;17.00;99.90
3713;DHT22;1872;51.406;6.856;2022-07-29T08:51:17;17.00;99.90
3713;DHT22;1872;51.406;6.856;2022-07-29T08:53:44;17.00;99.90
3713;DHT22;1872;51.406;6.856;2022-07-29T08:56:15;16.90;99.90
3713;DHT22;1872;51.406;6.856;2022-07-29T08:58:46;16.90;99.90
3713;DHT22;1872;51.406;6.856;2022-07-29T09:01:16;16.90;99.90
3713;DHT22;1872;51.406;6.856;2022-07-29T09:03:44;17.00;99.90
3713;DHT22;1872;51.406;6.856;2022-07-29T09:06:14;17.00;99.90
3713;DHT22;1872;51.406;6.856;2022-07-29T09:08:40;17.00;99.90
3713;DHT22;1872;51.406;6.856;2022-07-29T09:11:06;17.00;99.90
3713;DHT22;1872;51.406;6.856;2022-07-29T09:13:33;17.00;99.90
3713;DHT22;1872;51.406;6.856;2022-07-29T09:16:00;17.00;99.90
3713;DHT22;1872;51.406;6.856;2022-07-29T09:18:38;17.00;99.90
3713;DHT22;1872;51.406;6.856;2022-07-29T09:21:06;17.00;99.90
3713;DHT22;1872;51.406;6.856;2022-07-29T09:24:09;17.00;99.90
3713;DHT22;1872;51.406;6.856;2022-07-29T09:26:45;16.90;99.90
3713;DHT22;1872;51.406;6.856;2022-07-29T09:29:19;16.90;99.90
3713;DHT22;1872;51.406;6.856;2022-07-29T09:31:47;16.90;99.90
3713;DHT22;1872;51.406;6.856;2022-07-29T09:34:24;17.00;99.90
3713;DHT22;1872;51.406;6.856;2022-07-29T09:36:52;17.00;99.90
3713;DHT22;1872;51.406;6.856;2022-07-29T09:39:32;17.00;99.90
3713;DHT22;1872;51.406;6.856;2022-07-29T09:42:01;17.00;99.90
3713;DHT22;1872;51.406;6.856;2022-07-29T09:44:44;17.00;99.90
3713;DHT22;1872;51.406;6.856;2022-07-29T09:47:10;17.00;99.90
3713;DHT22;1872;51.406;6.856;2022-07-29T09:49:59;17.00;99.90
3713;DHT22;1872;51.406;6.856;2022-07-29T09:52:29;17.00;99.90
3713;DHT22;1872;51.406;6.856;2022-07-29T09:55:09;17.10;99.90
3713;DHT22;1872;51.406;6.856;2022-07-29T09:57:35;17.10;99.90
3713;DHT22;1872;51.406;6.856;2022-07-29T10:00:11;17.20;99.90
3713;DHT22;1872;51.406;6.856;2022-07-29T10:02:39;17.20;99.90
3713;DHT22;1872;51.406;6.856;2022-07-29T10:05:15;17.30;99.90
3713;DHT22;1872;51.406;6.856;2022-07-29T10:07:49;17.40;99.90
3713;DHT22;1872;51.406;6.856;2022-07-29T10:10:20;17.50;99.90
3713;DHT22;1872;51.406;6.856;2022-07-29T10:12:52;17.60;99.90
3713;DHT22;1872;51.406;6.856;2022-07-29T10:15:18;17.70;99.90
3713;DHT22;1872;51.406;6.856;2022-07-29T10:17:45;17.70;99.90
3713;DHT22;1872;51.406;6.856;2022-07-29T10:20:11;17.80;99.90
3713;DHT22;1872;51.406;6.856;2022-07-29T10:22:37;17.80;99.90
3713;DHT22;1872;51.406;6.856;2022-07-29T10:25:03;17.90;99.90
3713;DHT22;1872;51.406;6.856;2022-07-29T10:27:28;17.90;99.90
3713;DHT22;1872;51.406;6.856;2022-07-29T10:29:54;18.00;99.90
3713;DHT22;1872;51.406;6.856;2022-07-29T10:44:18;18.70;99.90
3713;DHT22;1872;51.406;6.856;2022-07-29T10:46:42;18.80;99.90
3713;DHT22;1872;51.406;6.856;2022-07-29T10:49:13;19.00;99.90
3713;DHT22;1872;51.406;6.856;2022-07-29T10:52:08;19.10;99.90
3713;DHT22;1872;51.406;6.856;2022-07-29T10:54:47;19.30;99.90
3713;DHT22;1872;51.406;6.856;2022-07-29T10:57:15;19.50;99.90
3713;DHT22;1872;51.406;6.856;2022-07-29T10:59:42;19.60;99.90
3713;DHT22;1872;51.406;6.856;2022-07-29T11:05:06;19.80;99.90
3713;DHT22;1872;51.406;6.856;2022-07-29T11:07:35;20.00;99.90
3713;DHT22;1872;51.406;6.856;2022-07-29T11:15:20;20.30;99.90
3713;DHT22;1872;51.406;6.856;2022-07-29T11:23:36;20.50;99.90
3713;DHT22;1872;51.406;6.856;2022-07-29T11:26:18;20.60;99.90
3713;DHT22;1872;51.406;6.856;2022-07-29T11:29:21;20.70;99.90
3713;DHT22;1872;51.406;6.856;2022-07-29T11:31:52;20.90;99.90
3713;DHT22;1872;51.406;6.856;2022-07-29T11:34:26;20.90;99.90
3713;DHT22;1872;51.406;6.856;2022-07-29T11:40:21;21.10;99.90
3713;DHT22;1872;51.406;6.856;2022-07-29T11:45:04;21.10;99.90
3713;DHT22;1872;51.406;6.856;2022-07-29T11:47:32;21.20;99.90
3713;DHT22;1872;51.406;6.856;2022-07-29T11:49:59;21.20;99.90
3713;DHT22;1872;51.406;6.856;2022-07-29T11:52:41;21.20;99.90
3713;DHT22;1872;51.406;6.856;2022-07-29T11:55:14;21.30;99.90
3713;DHT22;1872;51.406;6.856;2022-07-29T11:57:49;21.30;99.90
3713;DHT22;1872;51.406;6.856;2022-07-29T12:00:33;21.50;99.90
3713;DHT22;1872;51.406;6.856;2022-07-29T12:03:09;21.50;99.90
3713;DHT22;1872;51.406;6.856;2022-07-29T12:05:39;21.60;99.90
3713;DHT22;1872;51.406;6.856;2022-07-29T12:08:19;21.60;99.60
3713;DHT22;1872;51.406;6.856;2022-07-29T12:10:46;21.60;99.30
3713;DHT22;1872;51.406;6.856;2022-07-29T12:13:14;21.50;99.20
3713;DHT22;1872;51.406;6.856;2022-07-29T12:15:40;21.60;99.20
3713;DHT22;1872;51.406;6.856;2022-07-29T12:18:11;21.60;99.00
3713;DHT22;1872;51.406;6.856;2022-07-29T12:20:37;21.60;98.80
3713;DHT22;1872;51.406;6.856;2022-07-29T12:23:07;21.70;98.90
3713;DHT22;1872;51.406;6.856;2022-07-29T12:25:35;21.80;98.70
3713;DHT22;1872;51.406;6.856;2022-07-29T12:28:04;21.80;98.50
3713;DHT22;1872;51.406;6.856;2022-07-29T12:35:45;21.90;98.10
3713;DHT22;1872;51.406;6.856;2022-07-29T12:38:12;21.90;98.10
3713;DHT22;1872;51.406;6.856;2022-07-29T12:40:38;22.00;98.10
3713;DHT22;1872;51.406;6.856;2022-07-29T12:43:09;22.00;98.10
3713;DHT22;1872;51.406;6.856;2022-07-29T12:45:38;22.00;98.10
3713;DHT22;1872;51.406;6.856;2022-07-29T12:48:05;22.00;97.90
3713;DHT22;1872;51.406;6.856;2022-07-29T12:50:35;22.00;97.80
3713;DHT22;1872;51.406;6.856;2022-07-29T12:53:12;22.00;97.70
3713;DHT22;1872;51.406;6.856;2022-07-29T12:55:43;22.00;97.80
3713;DHT22;1872;51.406;6.856;2022-07-29T12:58:11;22.10;97.80
3713;DHT22;1872;51.406;6.856;2022-07-29T13:00:37;22.20;97.80
3713;DHT22;1872;51.406;6.856;2022-07-29T13:03:03;22.20;97.70
3713;DHT22;1872;51.406;6.856;2022-07-29T13:05:44;22.30;97.50
3713;DHT22;1872;51.406;6.856;2022-07-29T13:08:15;22.30;97.40
3713;DHT22;1872;51.406;6.856;2022-07-29T13:10:41;22.40;97.50
3713;DHT22;1872;51.406;6.856;2022-07-29T13:13:09;22.50;97.50
3713;DHT22;1872;51.406;6.856;2022-07-29T13:15:44;22.60;97.60
3713;DHT22;1872;51.406;6.856;2022-07-29T13:18:32;22.60;97.60
3713;DHT22;1872;51.406;6.856;2022-07-29T13:21:15;22.60;97.60
3713;DHT22;1872;51.406;6.856;2022-07-29T13:23:41;22.60;97.50
3713;DHT22;1872;51.406;6.856;2022-07-29T13:26:11;22.60;97.50
3713;DHT22;1872;51.406;6.856;2022-07-29T13:28:37;22.60;97.40
3713;DHT22;1872;51.406;6.856;2022-07-29T13:31:03;22.60;97.40
3713;DHT22;1872;51.406;6.856;2022-07-29T13:33:29;22.70;97.50
3713;DHT22;1872;51.406;6.856;2022-07-29T13:35:56;22.70;97.60
3713;DHT22;1872;51.406;6.856;2022-07-29T13:38:23;22.70;97.60
3713;DHT22;1872;51.406;6.856;2022-07-29T13:40:49;22.70;97.50
3713;DHT22;1872;51.406;6.856;2022-07-29T13:43:15;22.70;97.40
3713;DHT22;1872;51.406;6.856;2022-07-29T13:45:41;22.70;97.10
3713;DHT22;1872;51.406;6.856;2022-07-29T13:48:07;22.60;96.80
3713;DHT22;1872;51.406;6.856;2022-07-29T13:50:33;22.60;96.70
3713;DHT22;1872;51.406;6.856;2022-07-29T13:52:59;22.50;96.60
3713;DHT22;1872;51.406;6.856;2022-07-29T13:55:24;22.40;96.30
3713;DHT22;1872;51.406;6.856;2022-07-29T13:57:50;22.30;96.30
3713;DHT22;1872;51.406;6.856;2022-07-29T14:00:16;22.30;96.30
3713;DHT22;1872;51.406;6.856;2022-07-29T14:02:42;22.30;96.30
3713;DHT22;1872;51.406;6.856;2022-07-29T14:05:08;22.30;96.50
3713;DHT22;1872;51.406;6.856;2022-07-29T14:07:39;22.40;96.60
3713;DHT22;1872;51.406;6.856;2022-07-29T14:10:05;22.30;96.50
3713;DHT22;1872;51.406;6.856;2022-07-29T14:12:31;22.30;96.50
3713;DHT22;1872;51.406;6.856;2022-07-29T14:14:57;22.30;96.50
3713;DHT22;1872;51.406;6.856;2022-07-29T14:17:23;22.30;96.50
3713;DHT22;1872;51.406;6.856;2022-07-29T14:19:49;22.30;96.40
3713;DHT22;1872;51.406;6.856;2022-07-29T14:22:14;22.30;96.40
3713;DHT22;1872;51.406;6.856;2022-07-29T14:24:40;22.30;96.50
3713;DHT22;1872;51.406;6.856;2022-07-29T14:27:07;22.40;96.20
3713;DHT22;1872;51.406;6.856;2022-07-29T14:29:33;22.40;96.00
3713;DHT22;1872;51.406;6.856;2022-07-29T14:32:00;22.40;96.00
3713;DHT22;1872;51.406;6.856;2022-07-29T14:34:26;22.40;96.10
3713;DHT22;1872;51.406;6.856;2022-07-29T14:36:51;22.40;96.10
3713;DHT22;1872;51.406;6.856;2022-07-29T14:39:21;22.40;95.90
3713;DHT22;1872;51.406;6.856;2022-07-29T14:41:49;22.40;95.90
3713;DHT22;1872;51.406;6.856;2022-07-29T14:44:15;22.40;95.80
3713;DHT22;1872;51.406;6.856;2022-07-29T14:46:40;22.40;95.80
3713;DHT22;1872;51.406;6.856;2022-07-29T14:49:06;22.40;95.80
3713;DHT22;1872;51.406;6.856;2022-07-29T14:51:32;22.50;95.90
3713;DHT22;1872;51.406;6.856;2022-07-29T14:53:58;22.50;95.90
3713;DHT22;1872;51.406;6.856;2022-07-29T14:56:23;22.50;95.60
3713;DHT22;1872;51.406;6.856;2022-07-29T14:58:49;22.50;95.50
3713;DHT22;1872;51.406;6.856;2022-07-29T15:01:15;22.50;95.60
3713;DHT22;1872;51.406;6.856;2022-07-29T15:03:40;22.60;95.70
3713;DHT22;1872;51.406;6.856;2022-07-29T15:06:06;22.60;95.40
3713;DHT22;1872;51.406;6.856;2022-07-29T15:08:32;22.50;95.20
3713;DHT22;1872;51.406;6.856;2022-07-29T15:10:57;22.50;94.90
3713;DHT22;1872;51.406;6.856;2022-07-29T15:13:25;22.40;94.70
3713;DHT22;1872;51.406;6.856;2022-07-29T15:15:51;22.40;94.70
3713;DHT22;1872;51.406;6.856;2022-07-29T15:18:17;22.40;94.70
3713;DHT22;1872;51.406;6.856;2022-07-29T15:20:42;22.40;94.80
3713;DHT22;1872;51.406;6.856;2022-07-29T15:23:10;22.40;94.60
3713;DHT22;1872;51.406;6.856;2022-07-29T15:25:38;22.50;94.50
3713;DHT22;1872;51.406;6.856;2022-07-29T15:28:05;22.50;94.40
3713;DHT22;1872;51.406;6.856;2022-07-29T15:30:35;22.50;94.30
3713;DHT22;1872;51.406;6.856;2022-07-29T15:33:06;22.50;94.30
3713;DHT22;1872;51.406;6.856;2022-07-29T15:35:33;22.50;94.40
3713;DHT22;1872;51.406;6.856;2022-07-29T15:37:59;22.60;94.20
3713;DHT22;1872;51.406;6.856;2022-07-29T15:40:25;22.60;94.10
3713;DHT22;1872;51.406;6.856;2022-07-29T15:42:50;22.60;94.10
3713;DHT22;1872;51.406;6.856;2022-07-29T15:45:16;22.60;94.10
3713;DHT22;1872;51.406;6.856;2022-07-29T15:47:42;22.70;94.20
3713;DHT22;1872;51.406;6.856;2022-07-29T15:50:09;22.80;94.30
3713;DHT22;1872;51.406;6.856;2022-07-29T15:52:40;22.80;94.00
3713;DHT22;1872;51.406;6.856;2022-07-29T15:55:06;22.90;93.70
3713;DHT22;1872;51.406;6.856;2022-07-29T15:57:32;22.90;93.60
3713;DHT22;1872;51.406;6.856;2022-07-29T15:59:59;22.90;93.30
3713;DHT22;1872;51.406;6.856;2022-07-29T16:02:25;22.90;93.30
3713;DHT22;1872;51.406;6.856;2022-07-29T16:04:51;22.80;93.20
3713;DHT22;1872;51.406;6.856;2022-07-29T16:07:17;22.90;93.30
3713;DHT22;1872;51.406;6.856;2022-07-29T16:09:43;22.90;93.10
3713;DHT22;1872;51.406;6.856;2022-07-29T16:12:10;22.90;92.90
3713;DHT22;1872;51.406;6.856;2022-07-29T16:14:36;22.90;92.90
3713;DHT22;1872;51.406;6.856;2022-07-29T16:17:01;22.90;92.90
3713;DHT22;1872;51.406;6.856;2022-07-29T16:19:29;22.90;93.00
3713;DHT22;1872;51.406;6.856;2022-07-29T16:21:54;22.90;92.80
3713;DHT22;1872;51.406;6.856;2022-07-29T16:24:20;22.80;92.60
3713;DHT22;1872;51.406;6.856;2022-07-29T16:26:46;22.80;92.50
3713;DHT22;1872;51.406;6.856;2022-07-29T16:29:11;22.80;92.30
3713;DHT22;1872;51.406;6.856;2022-07-29T16:31:37;22.80;92.10
3713;DHT22;1872;51.406;6.856;2022-07-29T16:34:03;22.80;91.90
3713;DHT22;1872;51.406;6.856;2022-07-29T16:36:29;22.80;91.80
3713;DHT22;1872;51.406;6.856;2022-07-29T16:38:55;22.70;91.70
3713;DHT22;1872;51.406;6.856;2022-07-29T16:41:20;22.70;91.80
3713;DHT22;1872;51.406;6.856;2022-07-29T16:43:46;22.60;91.70
3713;DHT22;1872;51.406;6.856;2022-07-29T16:46:12;22.60;91.60
3713;DHT22;1872;51.406;6.856;2022-07-29T16:48:38;22.60;91.50
3713;DHT22;1872;51.406;6.856;2022-07-29T16:51:05;22.60;91.70
3713;DHT22;1872;51.406;6.856;2022-07-29T16:53:31;22.60;91.90
3713;DHT22;1872;51.406;6.856;2022-07-29T16:55:57;22.60;91.70
3713;DHT22;1872;51.406;6.856;2022-07-29T16:58:22;22.60;91.80